createdAt,value
2019-03-29T00:00:36.309Z,1.73
2019-03-29T00:03:04.695Z,2.00
2019-03-29T00:05:33.238Z,1.93
2019-03-29T00:08:01.846Z,1.90
2019-03-29T00:10:30.332Z,2.00
2019-03-29T00:12:58.825Z,2.10
2019-03-29T00:15:27.314Z,2.10
2019-03-29T00:17:55.801Z,2.13
2019-03-29T00:20:24.404Z,2.47
2019-03-29T00:22:52.990Z,2.10
2019-03-29T00:25:21.545Z,2.20
2019-03-29T00:27:50.091Z,2.70
2019-03-29T00:30:18.696Z,2.73
2019-03-29T00:32:47.228Z,1.80
2019-03-29T00:35:15.768Z,2.33
2019-03-29T00:37:53.358Z,1.90
2019-03-29T00:40:14.368Z,1.70
2019-03-29T00:42:43.362Z,2.50
2019-03-29T00:45:12.149Z,2.23
2019-03-29T00:47:40.656Z,2.50
2019-03-29T00:50:09.300Z,2.00
2019-03-29T00:52:37.783Z,1.90
2019-03-29T00:55:07.264Z,2.97
2019-03-29T00:57:35.891Z,2.60
2019-03-29T01:00:08.381Z,2.20
2019-03-29T01:02:37.069Z,2.20
2019-03-29T01:05:07.307Z,2.20
2019-03-29T01:07:35.807Z,2.40
2019-03-29T01:10:06.206Z,1.57
2019-03-29T01:12:34.804Z,2.00
2019-03-29T01:15:05.053Z,2.10
2019-03-29T01:17:33.532Z,1.83
2019-03-29T01:20:02.235Z,2.43
2019-03-29T01:22:31.319Z,2.03
2019-03-29T01:25:00.730Z,1.57
2019-03-29T01:27:29.266Z,2.50
2019-03-29T01:29:57.763Z,2.50
2019-03-29T01:32:26.272Z,2.20
2019-03-29T01:34:54.786Z,2.10
2019-03-29T01:37:23.198Z,1.90
2019-03-29T01:39:51.639Z,1.97
2019-03-29T01:42:20.745Z,1.80
2019-03-29T01:44:49.192Z,1.97
2019-03-29T01:47:17.694Z,2.40
2019-03-29T01:49:46.106Z,1.70
2019-03-29T01:52:14.662Z,2.00
2019-03-29T01:54:43.267Z,1.93
2019-03-29T01:57:11.953Z,1.97
2019-03-29T01:59:40.520Z,2.40
2019-03-29T02:02:08.985Z,1.93
2019-03-29T02:04:37.519Z,1.70
2019-03-29T02:07:06.411Z,1.40
2019-03-29T02:09:35.065Z,2.13
2019-03-29T02:12:03.561Z,1.63
2019-03-29T02:14:32.065Z,1.77
2019-03-29T02:17:00.557Z,2.10
2019-03-29T02:19:29.133Z,1.63
2019-03-29T02:21:57.767Z,1.70
2019-03-29T02:24:26.289Z,1.77
2019-03-29T02:26:54.749Z,1.80
2019-03-29T02:29:23.210Z,1.80
2019-03-29T02:31:51.715Z,1.20
2019-03-29T02:34:20.152Z,2.43
2019-03-29T02:36:48.691Z,2.27
2019-03-29T02:39:17.276Z,1.80
2019-03-29T02:41:46.843Z,1.50
2019-03-29T02:44:15.466Z,2.03
2019-03-29T02:46:44.157Z,1.40
2019-03-29T02:49:13.155Z,1.63
2019-03-29T02:51:41.733Z,1.60
2019-03-29T02:54:10.255Z,1.70
2019-03-29T02:56:38.751Z,2.20
2019-03-29T02:59:07.223Z,2.03
2019-03-29T03:01:35.858Z,1.70
2019-03-29T03:04:04.551Z,1.50
2019-03-29T03:06:33.045Z,1.93
2019-03-29T03:09:13.008Z,1.67
2019-03-29T03:11:31.715Z,1.50
2019-03-29T03:14:00.410Z,1.60
2019-03-29T03:16:29.044Z,1.40
2019-03-29T03:18:57.629Z,1.30
2019-03-29T03:21:26.266Z,1.60
2019-03-29T03:23:54.848Z,1.30
2019-03-29T03:26:23.508Z,1.50
2019-03-29T03:28:52.067Z,1.50
2019-03-29T03:31:20.536Z,1.67
2019-03-29T03:33:49.275Z,1.50
2019-03-29T03:36:17.749Z,1.43
2019-03-29T03:38:46.326Z,1.37
2019-03-29T03:41:14.741Z,1.77
2019-03-29T03:43:43.273Z,1.57
2019-03-29T03:46:11.680Z,1.50
2019-03-29T03:48:40.317Z,1.80
2019-03-29T03:51:09.007Z,1.67
2019-03-29T03:53:37.866Z,1.60
2019-03-29T03:56:08.403Z,1.60
2019-03-29T03:58:37.874Z,1.87
2019-03-29T04:01:06.540Z,1.43
2019-03-29T04:03:35.195Z,1.63
2019-03-29T04:06:04.015Z,1.50
2019-03-29T04:08:32.623Z,1.40
2019-03-29T04:11:01.323Z,1.20
2019-03-29T04:13:29.950Z,1.30
2019-03-29T04:15:58.486Z,1.43
2019-03-29T04:18:26.925Z,1.40
2019-03-29T04:20:55.470Z,1.50
2019-03-29T04:23:23.993Z,1.60
2019-03-29T04:25:52.645Z,1.40
2019-03-29T04:28:21.159Z,1.40
2019-03-29T04:30:49.645Z,1.40
2019-03-29T04:33:18.376Z,1.37
2019-03-29T04:35:47.105Z,1.57
2019-03-29T04:38:15.628Z,1.40
2019-03-29T04:40:44.232Z,1.50
2019-03-29T04:43:12.774Z,1.63
2019-03-29T04:45:41.254Z,1.90
2019-03-29T04:48:09.932Z,1.40
2019-03-29T04:50:38.443Z,1.50
2019-03-29T04:53:06.997Z,1.40
2019-03-29T04:55:35.687Z,1.30
2019-03-29T04:58:04.474Z,1.73
2019-03-29T05:00:33.093Z,1.47
2019-03-29T05:03:01.672Z,1.43
2019-03-29T05:05:30.193Z,1.67
2019-03-29T05:07:58.742Z,2.10
2019-03-29T05:10:27.187Z,1.47
2019-03-29T05:12:56.003Z,1.73
2019-03-29T05:15:24.472Z,1.50
2019-03-29T05:17:53.121Z,2.10
2019-03-29T05:20:22.506Z,1.60
2019-03-29T05:22:51.254Z,1.87
2019-03-29T05:25:20.644Z,1.33
2019-03-29T05:27:49.071Z,1.20
2019-03-29T05:30:17.616Z,1.57
2019-03-29T05:32:46.156Z,1.80
2019-03-29T05:35:14.657Z,1.17
2019-03-29T05:37:43.343Z,1.20
2019-03-29T05:40:12.678Z,1.83
2019-03-29T05:42:42.233Z,0.90
2019-03-29T05:45:10.819Z,1.70
2019-03-29T05:47:39.370Z,1.87
2019-03-29T05:50:08.994Z,1.83
2019-03-29T05:52:37.490Z,2.30
2019-03-29T05:55:07.786Z,1.93
2019-03-29T05:57:36.407Z,1.90
2019-03-29T06:00:11.138Z,1.33
2019-03-29T06:02:39.695Z,1.43
2019-03-29T06:05:08.191Z,1.57
2019-03-29T06:07:36.601Z,1.93
2019-03-29T06:10:06.641Z,1.30
2019-03-29T06:12:35.057Z,2.10
2019-03-29T06:15:04.064Z,1.63
2019-03-29T06:17:32.552Z,1.37
2019-03-29T06:20:01.006Z,1.70
2019-03-29T06:22:29.416Z,1.37
2019-03-29T06:24:57.881Z,1.60
2019-03-29T06:27:26.486Z,2.00
2019-03-29T06:29:54.984Z,1.50
2019-03-29T06:32:23.476Z,1.40
2019-03-29T06:34:51.890Z,1.57
2019-03-29T06:37:22.709Z,1.63
2019-03-29T06:39:52.302Z,2.13
2019-03-29T06:42:20.899Z,1.57
2019-03-29T06:44:49.545Z,1.43
2019-03-29T06:47:17.999Z,1.73
2019-03-29T06:49:46.471Z,2.00
2019-03-29T06:52:14.883Z,1.93
2019-03-29T06:54:43.423Z,1.87
2019-03-29T06:57:12.048Z,1.80
2019-03-29T06:59:40.482Z,1.60
2019-03-29T07:02:09.027Z,1.67
2019-03-29T07:04:37.811Z,2.23
2019-03-29T07:07:07.253Z,1.87
2019-03-29T07:09:35.721Z,1.53
2019-03-29T07:12:04.387Z,2.53
2019-03-29T07:14:33.011Z,1.33
2019-03-29T07:17:01.696Z,1.27
2019-03-29T07:19:30.184Z,1.80
2019-03-29T07:21:58.833Z,1.83
2019-03-29T07:24:27.314Z,1.53
2019-03-29T07:26:55.804Z,1.70
2019-03-29T07:29:24.650Z,1.50
2019-03-29T07:31:53.356Z,1.53
2019-03-29T07:34:22.077Z,2.20
2019-03-29T07:36:50.844Z,1.50
2019-03-29T07:39:19.372Z,2.03
2019-03-29T07:41:48.075Z,2.20
2019-03-29T07:44:16.807Z,1.90
2019-03-29T07:46:45.610Z,2.80
2019-03-29T07:49:14.048Z,2.63
2019-03-29T07:51:42.791Z,2.80
2019-03-29T07:54:11.551Z,2.30
2019-03-29T07:56:40.218Z,2.60
2019-03-29T07:59:08.954Z,2.87
2019-03-29T08:01:37.601Z,2.57
2019-03-29T08:04:06.257Z,2.80
2019-03-29T08:06:35.002Z,2.33
2019-03-29T08:09:04.140Z,2.83
2019-03-29T08:11:45.579Z,2.60
2019-03-29T08:14:02.751Z,2.10
2019-03-29T08:16:31.157Z,2.53
2019-03-29T08:18:59.662Z,3.30
2019-03-29T08:21:28.099Z,2.10
2019-03-29T08:23:56.572Z,3.20
2019-03-29T08:26:24.981Z,2.60
2019-03-29T08:28:53.404Z,2.57
2019-03-29T08:31:21.823Z,3.03
2019-03-29T08:33:50.239Z,3.53
2019-03-29T08:36:18.736Z,2.90
2019-03-29T08:38:47.202Z,2.47
2019-03-29T08:41:15.861Z,2.87
2019-03-29T08:43:44.274Z,4.43
2019-03-29T08:46:12.976Z,2.97
2019-03-29T08:48:41.879Z,3.50
2019-03-29T08:51:10.589Z,3.57
2019-03-29T08:53:39.334Z,3.40
2019-03-29T08:56:08.006Z,3.53
2019-03-29T08:58:36.731Z,3.73
2019-03-29T09:01:05.740Z,3.23
2019-03-29T09:03:34.519Z,3.60
2019-03-29T09:06:03.393Z,3.40
2019-03-29T09:08:32.339Z,3.07
2019-03-29T09:11:01.291Z,3.23
2019-03-29T09:13:29.710Z,3.60
2019-03-29T09:15:58.369Z,2.70
2019-03-29T09:18:26.978Z,3.10
2019-03-29T09:20:55.622Z,3.30
2019-03-29T09:23:24.247Z,3.13
2019-03-29T09:25:53.104Z,3.10
2019-03-29T09:28:21.784Z,3.30
2019-03-29T09:30:51.382Z,3.50
2019-03-29T09:33:20.046Z,2.53
2019-03-29T09:35:48.649Z,3.20
2019-03-29T09:38:17.392Z,2.80
2019-03-29T09:40:56.218Z,3.63
2019-03-29T09:43:19.706Z,4.00
2019-03-29T09:45:48.378Z,3.57
2019-03-29T09:48:17.148Z,2.70
2019-03-29T09:50:50.185Z,3.20
2019-03-29T09:53:16.362Z,4.23
2019-03-29T09:55:45.843Z,3.50
2019-03-29T09:58:16.621Z,3.03
2019-03-29T10:00:45.132Z,3.97
2019-03-29T10:03:13.913Z,3.43
2019-03-29T10:05:42.495Z,3.27
2019-03-29T10:08:11.106Z,3.40
2019-03-29T10:10:39.940Z,2.70
2019-03-29T10:13:08.750Z,3.27
2019-03-29T10:15:37.408Z,4.07
2019-03-29T10:18:06.147Z,3.60
2019-03-29T10:20:34.712Z,2.37
2019-03-29T10:23:03.470Z,3.17
2019-03-29T10:25:32.219Z,2.93
2019-03-29T10:28:00.835Z,3.10
2019-03-29T10:30:37.511Z,2.97
2019-03-29T10:33:06.249Z,3.53
2019-03-29T10:35:50.296Z,2.60
2019-03-29T10:38:06.047Z,2.97
2019-03-29T10:40:34.756Z,3.50
2019-03-29T10:43:03.421Z,2.70
2019-03-29T10:45:32.063Z,3.77
2019-03-29T10:48:00.768Z,3.60
2019-03-29T10:50:29.361Z,3.10
2019-03-29T10:52:57.856Z,3.80
2019-03-29T10:55:26.423Z,3.83
2019-03-29T10:57:55.103Z,3.67
2019-03-29T11:00:35.639Z,3.80
2019-03-29T11:03:04.576Z,3.50
2019-03-29T11:05:33.296Z,4.53
2019-03-29T11:08:01.944Z,4.10
2019-03-29T11:10:32.396Z,4.20
2019-03-29T11:13:12.023Z,3.97
2019-03-29T11:15:31.449Z,3.80
2019-03-29T11:17:59.968Z,3.53
2019-03-29T11:20:28.386Z,3.40
2019-03-29T11:22:57.103Z,3.63
2019-03-29T11:25:25.551Z,4.10
2019-03-29T11:27:53.986Z,3.40
2019-03-29T11:30:22.621Z,4.20
2019-03-29T11:32:51.152Z,4.17
2019-03-29T11:35:19.567Z,3.70
2019-03-29T11:37:48.127Z,3.67
2019-03-29T11:40:16.976Z,4.60
2019-03-29T11:42:46.035Z,3.40
2019-03-29T11:45:14.659Z,3.90
2019-03-29T11:47:43.136Z,3.20
2019-03-29T11:50:11.986Z,3.80
2019-03-29T11:52:40.492Z,3.77
2019-03-29T11:55:09.240Z,4.27
2019-03-29T11:57:37.824Z,4.10
2019-03-29T12:00:09.205Z,4.00
2019-03-29T12:02:37.626Z,2.93
2019-03-29T12:05:06.584Z,3.40
2019-03-29T12:07:35.027Z,3.63
2019-03-29T12:10:05.351Z,2.93
2019-03-29T12:12:33.783Z,3.00
2019-03-29T12:15:02.196Z,3.57
2019-03-29T12:17:30.624Z,4.27
2019-03-29T12:19:59.033Z,3.60
2019-03-29T12:22:27.460Z,3.90
2019-03-29T12:24:55.860Z,3.87
2019-03-29T12:27:24.301Z,3.90
2019-03-29T12:29:52.701Z,4.07
2019-03-29T12:32:21.128Z,4.27
2019-03-29T12:34:49.544Z,3.87
2019-03-29T12:37:17.963Z,3.40
2019-03-29T12:39:46.410Z,3.87
2019-03-29T12:42:14.826Z,3.60
2019-03-29T12:44:43.308Z,3.53
2019-03-29T12:47:11.747Z,3.77
2019-03-29T12:49:40.179Z,3.20
2019-03-29T12:52:08.590Z,3.50
2019-03-29T12:54:37.023Z,3.67
2019-03-29T12:57:06.910Z,3.57
2019-03-29T12:59:35.545Z,3.90
2019-03-29T13:02:04.024Z,3.10
2019-03-29T13:04:32.438Z,3.80
2019-03-29T13:07:00.875Z,3.90
2019-03-29T13:09:29.283Z,3.53
2019-03-29T13:11:57.713Z,3.13
2019-03-29T13:14:26.134Z,3.20
2019-03-29T13:16:54.547Z,3.50
2019-03-29T13:19:22.974Z,3.43
2019-03-29T13:21:51.376Z,3.50
2019-03-29T13:24:19.821Z,3.27
2019-03-29T13:26:48.238Z,3.60
2019-03-29T13:29:16.664Z,3.63
2019-03-29T13:31:45.146Z,4.30
2019-03-29T13:34:13.586Z,3.93
2019-03-29T13:36:41.996Z,4.23
2019-03-29T13:39:10.410Z,4.07
2019-03-29T13:41:38.828Z,2.83
2019-03-29T13:44:07.259Z,3.77
2019-03-29T13:46:35.679Z,3.90
2019-03-29T13:49:04.144Z,3.10
2019-03-29T13:51:32.576Z,3.33
2019-03-29T13:54:00.990Z,3.03
2019-03-29T13:56:29.432Z,3.73
2019-03-29T13:58:57.837Z,3.47
2019-03-29T14:01:26.359Z,3.73
2019-03-29T14:03:54.792Z,3.70
2019-03-29T14:06:23.206Z,3.70
2019-03-29T14:08:51.642Z,3.33
2019-03-29T14:11:20.074Z,3.90
2019-03-29T14:13:48.548Z,3.80
2019-03-29T14:16:17.032Z,3.17
2019-03-29T14:18:45.453Z,3.47
2019-03-29T14:21:13.934Z,3.17
2019-03-29T14:23:42.390Z,3.37
2019-03-29T14:26:10.806Z,3.27
2019-03-29T14:28:39.212Z,3.20
2019-03-29T14:31:07.698Z,3.20
2019-03-29T14:33:36.116Z,3.00
2019-03-29T14:36:04.601Z,4.10
2019-03-29T14:38:33.043Z,3.50
2019-03-29T14:41:01.463Z,4.10
2019-03-29T14:43:29.886Z,3.17
2019-03-29T14:45:58.310Z,3.50
2019-03-29T14:48:26.747Z,3.10
2019-03-29T14:50:55.227Z,4.07
2019-03-29T14:53:23.638Z,3.63
2019-03-29T14:55:52.083Z,2.80
2019-03-29T14:58:20.523Z,4.03
2019-03-29T15:00:49.266Z,3.60
2019-03-29T15:03:17.778Z,2.80
2019-03-29T15:05:46.552Z,3.50
2019-03-29T15:08:14.989Z,3.93
2019-03-29T15:10:45.828Z,4.20
2019-03-29T15:13:13.628Z,4.03
2019-03-29T15:15:42.050Z,3.37
2019-03-29T15:18:10.456Z,3.53
2019-03-29T15:20:52.135Z,3.30
2019-03-29T15:23:09.122Z,3.33
2019-03-29T15:25:40.429Z,3.33
2019-03-29T15:28:07.676Z,3.07
2019-03-29T15:30:36.092Z,2.93
2019-03-29T15:33:04.592Z,3.60
2019-03-29T15:35:33.107Z,3.50
2019-03-29T15:38:01.541Z,2.90
2019-03-29T15:40:29.991Z,2.40
2019-03-29T15:42:58.482Z,2.67
2019-03-29T15:45:26.953Z,3.17
2019-03-29T15:47:55.396Z,2.90
2019-03-29T15:50:23.836Z,2.90
2019-03-29T15:52:52.266Z,2.27
2019-03-29T15:55:20.699Z,3.23
2019-03-29T15:57:49.217Z,3.27
2019-03-29T16:00:17.957Z,2.67
2019-03-29T16:02:46.375Z,2.30
2019-03-29T16:05:14.794Z,3.10
2019-03-29T16:07:43.202Z,2.50
2019-03-29T16:10:11.709Z,2.30
2019-03-29T16:12:40.156Z,3.00
2019-03-29T16:15:08.630Z,2.73
2019-03-29T16:17:37.050Z,2.70
2019-03-29T16:20:06.513Z,2.63
2019-03-29T16:22:35.218Z,2.60
2019-03-29T16:25:05.851Z,2.13
2019-03-29T16:27:34.286Z,2.40
2019-03-29T16:30:02.873Z,2.97
2019-03-29T16:32:31.276Z,2.40
2019-03-29T16:34:59.780Z,2.50
2019-03-29T16:37:28.247Z,3.07
2019-03-29T16:39:56.655Z,2.00
2019-03-29T16:42:25.079Z,3.07
2019-03-29T16:44:55.434Z,2.57
2019-03-29T16:47:23.899Z,2.50
2019-03-29T16:49:58.132Z,2.70
2019-03-29T16:52:26.573Z,2.33
2019-03-29T16:54:54.977Z,2.50
2019-03-29T16:57:23.445Z,2.50
2019-03-29T16:59:51.868Z,2.03
2019-03-29T17:02:20.291Z,2.70
2019-03-29T17:04:48.794Z,2.50
2019-03-29T17:07:17.226Z,2.57
2019-03-29T17:09:45.643Z,2.40
2019-03-29T17:12:14.069Z,2.10
2019-03-29T17:14:42.500Z,2.53
2019-03-29T17:17:11.014Z,2.30
2019-03-29T17:19:39.422Z,2.60
2019-03-29T17:22:07.838Z,2.10
2019-03-29T17:24:36.287Z,2.87
2019-03-29T17:27:04.778Z,3.07
2019-03-29T17:29:33.267Z,2.23
2019-03-29T17:32:01.752Z,1.90
2019-03-29T17:34:30.314Z,2.50
2019-03-29T17:36:58.730Z,2.40
2019-03-29T17:39:27.163Z,1.90
2019-03-29T17:41:55.583Z,2.30
2019-03-29T17:44:24.007Z,1.83
2019-03-29T17:46:52.440Z,2.00
2019-03-29T17:49:20.861Z,1.80
2019-03-29T17:51:49.282Z,1.80
2019-03-29T17:54:17.796Z,1.90
2019-03-29T17:56:46.206Z,2.27
2019-03-29T17:59:14.645Z,2.47
2019-03-29T18:01:43.159Z,2.20
2019-03-29T18:04:11.565Z,1.77
2019-03-29T18:06:39.996Z,1.70
2019-03-29T18:09:08.583Z,2.80
2019-03-29T18:11:37.170Z,2.60
2019-03-29T18:14:05.593Z,2.30
2019-03-29T18:16:34.168Z,2.10
2019-03-29T18:19:02.700Z,2.37
2019-03-29T18:21:31.217Z,2.10
2019-03-29T18:23:59.678Z,2.27
2019-03-29T18:26:28.076Z,1.93
2019-03-29T18:28:56.511Z,2.77
2019-03-29T18:31:25.059Z,1.87
2019-03-29T18:33:53.575Z,1.77
2019-03-29T18:36:22.446Z,2.00
2019-03-29T18:38:51.167Z,2.10
2019-03-29T18:41:19.606Z,1.50
2019-03-29T18:43:48.040Z,1.40
2019-03-29T18:46:16.462Z,1.80
2019-03-29T18:48:44.937Z,1.83
2019-03-29T18:51:13.539Z,1.87
2019-03-29T18:53:42.126Z,2.43
2019-03-29T18:56:29.899Z,1.83
2019-03-29T18:58:58.382Z,2.23
2019-03-29T19:01:26.790Z,1.70
2019-03-29T19:03:55.393Z,2.00
2019-03-29T19:06:23.892Z,1.97
2019-03-29T19:08:52.312Z,1.73
2019-03-29T19:11:20.740Z,1.87
2019-03-29T19:13:49.229Z,2.70
2019-03-29T19:16:17.718Z,2.13
2019-03-29T19:18:46.147Z,2.33
2019-03-29T19:21:14.567Z,1.90
2019-03-29T19:23:42.968Z,2.07
2019-03-29T19:26:11.392Z,1.57
2019-03-29T19:28:39.822Z,1.90
2019-03-29T19:31:08.234Z,1.80
2019-03-29T19:33:36.648Z,1.93
2019-03-29T19:36:05.162Z,2.17
2019-03-29T19:38:33.678Z,2.20
2019-03-29T19:41:02.166Z,1.83
2019-03-29T19:43:30.560Z,1.43
2019-03-29T19:45:59.029Z,2.23
2019-03-29T19:48:27.471Z,1.20
2019-03-29T19:50:55.885Z,1.40
2019-03-29T19:53:24.344Z,1.97
2019-03-29T19:55:52.840Z,1.93
2019-03-29T19:58:21.292Z,1.90
2019-03-29T20:00:49.777Z,2.23
2019-03-29T20:03:18.210Z,1.93
2019-03-29T20:05:46.638Z,1.60
2019-03-29T20:08:15.038Z,1.80
2019-03-29T20:10:43.469Z,1.60
2019-03-29T20:13:11.902Z,1.80
2019-03-29T20:15:40.311Z,2.10
2019-03-29T20:18:08.895Z,1.80
2019-03-29T20:20:37.292Z,1.30
2019-03-29T20:23:05.814Z,1.50
2019-03-29T20:25:34.310Z,1.50
2019-03-29T20:28:02.750Z,1.80
2019-03-29T20:30:31.302Z,1.67
2019-03-29T20:32:59.707Z,2.20
2019-03-29T20:35:28.164Z,1.53
2019-03-29T20:37:56.610Z,1.87
2019-03-29T20:40:25.085Z,2.17
2019-03-29T20:42:53.513Z,1.30
2019-03-29T20:45:21.942Z,1.77
2019-03-29T20:47:51.935Z,1.20
2019-03-29T20:50:21.903Z,2.00
2019-03-29T20:52:50.307Z,1.90
2019-03-29T20:55:18.737Z,2.00
2019-03-29T20:57:47.203Z,2.00
2019-03-29T21:00:18.172Z,1.90
2019-03-29T21:02:46.625Z,1.60
2019-03-29T21:05:15.102Z,1.80
2019-03-29T21:07:43.608Z,1.33
2019-03-29T21:10:12.221Z,1.63
2019-03-29T21:12:40.632Z,1.80
2019-03-29T21:15:09.629Z,1.40
2019-03-29T21:17:38.221Z,1.30
2019-03-29T21:20:08.379Z,1.40
2019-03-29T21:22:37.140Z,1.57
2019-03-29T21:25:07.899Z,1.60
2019-03-29T21:27:36.736Z,1.90
2019-03-29T21:30:08.288Z,1.70
2019-03-29T21:32:36.785Z,1.57
2019-03-29T21:35:06.942Z,1.40
2019-03-29T21:37:36.094Z,1.27
2019-03-29T21:40:06.967Z,1.70
2019-03-29T21:42:35.704Z,2.00
2019-03-29T21:45:06.375Z,1.60
2019-03-29T21:47:35.111Z,1.87
2019-03-29T21:50:10.266Z,1.40
2019-03-29T21:52:38.690Z,1.97
2019-03-29T21:55:08.135Z,2.07
2019-03-29T21:57:36.557Z,1.60
2019-03-29T22:00:10.723Z,1.40
2019-03-29T22:02:39.123Z,1.40
2019-03-29T22:05:10.294Z,1.70
2019-03-29T22:07:38.107Z,1.60
2019-03-29T22:10:08.069Z,2.30
2019-03-29T22:12:36.729Z,2.17
2019-03-29T22:15:07.850Z,2.13
2019-03-29T22:17:36.347Z,2.07
2019-03-29T22:20:08.637Z,1.20
2019-03-29T22:22:37.439Z,1.10
2019-03-29T22:25:07.972Z,1.60
2019-03-29T22:27:36.416Z,1.70
2019-03-29T22:30:07.913Z,1.60
2019-03-29T22:32:36.304Z,1.50
2019-03-29T22:35:07.168Z,1.90
2019-03-29T22:37:35.585Z,1.63
2019-03-29T22:40:08.578Z,1.33
2019-03-29T22:42:36.995Z,2.43
2019-03-29T22:45:07.760Z,1.67
2019-03-29T22:47:36.166Z,1.57
2019-03-29T22:50:06.198Z,1.20
2019-03-29T22:52:34.688Z,1.63
2019-03-29T22:55:04.267Z,1.43
2019-03-29T22:57:32.661Z,2.33
2019-03-29T23:00:01.084Z,0.97
2019-03-29T23:02:30.483Z,1.47
2019-03-29T23:04:58.909Z,1.57
2019-03-29T23:07:27.348Z,1.97
2019-03-29T23:09:55.870Z,1.10
2019-03-29T23:12:24.268Z,1.47
2019-03-29T23:14:52.757Z,1.83
2019-03-29T23:17:22.118Z,1.67
2019-03-29T23:19:50.527Z,1.90
2019-03-29T23:22:18.943Z,1.57
2019-03-29T23:24:47.371Z,1.30
2019-03-29T23:27:15.796Z,1.67
2019-03-29T23:29:44.202Z,1.30
2019-03-29T23:32:12.706Z,1.50
2019-03-29T23:34:41.138Z,1.50
2019-03-29T23:37:09.566Z,1.60
2019-03-29T23:39:38.361Z,1.77
2019-03-29T23:42:06.807Z,2.00
2019-03-29T23:44:35.244Z,1.87
2019-03-29T23:47:03.817Z,1.20
2019-03-29T23:49:32.251Z,1.20
2019-03-29T23:52:00.664Z,1.30
2019-03-29T23:54:29.162Z,1.70
2019-03-29T23:56:57.629Z,1.50
2019-03-29T23:59:26.815Z,1.50
